Time;durP1;ratioP1;P1;durP2;ratioP2;P2;SDS_P1;SDS_P2;PMS_P1;PMS_P2;Temp;Humidity;BMP_temperature;BMP_pressure;BME280_temperature;BME280_humidity;BME280_pressure;Samples;Min_cycle;Max_cycle;Signal;HPM_P1;HPM_P2
2022/01/15 00:01:33;;;;;;;191.93;154.82;;;;;;;14.71;31.10;94854.81;5009766;28;20060;-65
2022/01/15 00:03:59;;;;;;;193.98;156.57;;;;;;;14.72;31.23;94855.56;5009466;28;21140;-65
2022/01/15 00:06:24;;;;;;;199.30;160.05;;;;;;;14.71;31.18;94851.38;5008684;28;20045;-66
2022/01/15 00:08:50;;;;;;;194.73;158.02;;;;;;;14.70;31.27;94842.53;5007757;28;20057;-66
2022/01/15 00:11:16;;;;;;;189.23;152.18;;;;;;;14.71;31.20;94845.97;5010015;28;20069;-66
2022/01/15 00:13:44;;;;;;;191.57;152.98;;;;;;;14.69;31.29;94837.56;4992201;28;20046;-66
2022/01/15 00:16:14;;;;;;;203.98;162.27;;;;;;;14.69;31.31;94837.56;5008870;28;20041;-66
2022/01/15 00:18:46;;;;;;;196.23;158.40;;;;;;;14.66;31.36;94833.75;5006739;28;20059;-66
2022/01/15 00:21:13;;;;;;;195.07;159.13;;;;;;;14.68;31.29;94834.09;5008343;28;20072;-66
2022/01/15 00:23:39;;;;;;;196.95;159.07;;;;;;;14.68;31.35;94830.66;5008861;28;20052;-66
2022/01/15 00:26:05;;;;;;;192.20;155.40;;;;;;;14.66;31.22;94827.59;5005079;28;20046;-65
2022/01/15 00:28:30;;;;;;;193.70;157.93;;;;;;;14.68;31.12;94826.03;5009297;28;20045;-65
2022/01/15 00:30:56;;;;;;;191.27;153.38;;;;;;;14.68;31.15;94825.25;5010233;28;20593;-66
2022/01/15 00:33:21;;;;;;;206.65;166.82;;;;;;;14.67;31.27;94813.72;5006802;28;20045;-66
2022/01/15 00:35:47;;;;;;;188.57;151.55;;;;;;;14.66;31.23;94814.16;5009605;28;20050;-66
2022/01/15 00:38:13;;;;;;;192.02;155.95;;;;;;;14.67;31.23;94816.44;5008467;28;20070;-66
2022/01/15 00:40:38;;;;;;;196.50;158.88;;;;;;;14.65;31.28;94801.84;5007415;28;20050;-66
2022/01/15 00:43:04;;;;;;;190.73;154.10;;;;;;;14.65;31.27;94794.53;5007385;28;20057;-65
2022/01/15 00:45:32;;;;;;;201.50;163.48;;;;;;;14.64;31.36;94779.56;4993895;28;20156;-66
2022/01/15 00:47:59;;;;;;;194.15;155.73;;;;;;;14.64;31.27;94784.94;5011232;28;20389;-66
2022/01/15 00:50:25;;;;;;;196.23;158.23;;;;;;;14.65;31.21;94785.72;5008661;28;20041;-65
2022/01/15 00:52:50;;;;;;;197.27;158.60;;;;;;;14.65;31.25;94783.00;5007491;28;20053;-66
2022/01/15 00:55:19;;;;;;;192.52;155.75;;;;;;;14.64;31.22;94784.94;5004331;28;20482;-65
2022/01/15 00:57:45;;;;;;;188.38;153.10;;;;;;;14.64;31.23;94781.50;5006684;28;20045;-66
2022/01/15 01:00:15;;;;;;;196.95;171.25;;;;;;;14.64;31.30;94781.50;5012511;28;20064;-66
2022/01/15 01:02:40;;;;;;;;;;;;;;;14.64;31.22;94794.97;5000948;28;20057;-66
2022/01/15 01:05:06;;;;;;;193.80;168.18;;;;;;;14.63;31.18;94788.06;5006173;28;19979;-65
2022/01/15 01:07:32;;;;;;;199.50;172.77;;;;;;;14.63;31.05;94788.06;5008438;28;20130;-66
2022/01/15 01:23:27;;;;;;;199.40;176.70;;;;;;;14.60;31.25;94778.88;5006987;28;20158;-65
2022/01/15 01:26:00;;;;;;;200.57;178.40;;;;;;;14.61;31.36;94783.06;5003854;28;20059;-66
2022/01/15 01:30:58;;;;;;;195.38;156.02;;;;;;;14.61;30.99;94774.25;5005307;28;20120;-66
2022/01/15 01:36:06;;;;;;;193.05;155.52;;;;;;;14.60;31.12;94778.88;5007878;28;20065;-66
2022/01/15 01:38:38;;;;;;;190.40;152.60;;;;;;;14.61;31.06;94779.63;5004551;28;20046;-66
2022/01/15 01:41:06;;;;;;;192.50;155.52;;;;;;;14.61;31.18;94777.69;5007580;28;20049;-67
2022/01/15 01:48:35;;;;;;;205.43;182.98;;;;;;;14.59;31.04;94771.97;5006546;28;20382;-66
2022/01/15 01:51:01;;;;;;;200.50;178.65;;;;;;;14.60;31.25;94775.41;5011372;28;20493;-67
2022/01/15 01:53:26;;;;;;;202.38;180.57;;;;;;;14.60;30.94;94778.09;5006843;28;20230;-66
2022/01/15 01:55:52;;;;;;;201.32;179.07;;;;;;;14.59;31.00;94773.91;5007748;28;20060;-66
2022/01/15 01:58:18;;;;;;;197.90;170.02;;;;;;;14.59;31.05;94780.03;5005909;28;20037;-66
2022/01/15 02:00:43;;;;;;;210.35;185.48;;;;;;;14.58;31.04;94773.13;5002687;28;20479;-66
2022/01/15 02:03:09;;;;;;;195.50;170.50;;;;;;;14.57;30.99;94771.63;5003592;28;20123;-66
2022/01/15 02:05:34;;;;;;;206.95;179.85;;;;;;;14.58;30.98;94765.06;5004976;28;20056;-66
2022/01/15 02:08:00;;;;;;;191.85;154.88;;;;;;;14.58;31.08;94764.31;5006300;28;20481;-66
2022/01/15 02:10:26;;;;;;;197.90;159.40;;;;;;;14.57;30.79;94757.41;5006262;28;20072;-66
2022/01/15 02:12:52;;;;;;;190.77;154.30;;;;;;;14.57;30.73;94757.41;5003521;28;20056;-65
2022/01/15 02:15:20;;;;;;;198.80;160.10;;;;;;;14.56;30.83;94753.94;5001052;28;20045;-66
2022/01/15 02:17:47;;;;;;;197.32;159.95;;;;;;;14.56;30.82;94745.13;5005241;28;20085;-66
2022/01/15 02:25:54;;;;;;;203.93;177.57;;;;;;;14.56;30.79;94745.13;5008089;28;20129;-66
2022/01/15 02:28:40;;;;;;;212.15;186.68;;;;;;;14.55;30.91;94738.22;5003519;28;22253;-66
2022/01/15 02:31:09;;;;;;;199.52;171.30;;;;;;;14.55;30.80;94740.91;5007153;28;20489;-67
2022/01/15 02:33:36;;;;;;;200.82;176.70;;;;;;;14.55;30.63;94740.91;5002429;28;20053;-66
2022/01/15 02:36:04;;;;;;;195.98;172.93;;;;;;;14.54;30.70;94737.44;5004239;28;21252;-66
2022/01/15 02:38:29;;;;;;;197.93;171.50;;;;;;;14.53;30.35;94735.94;5003211;28;20076;-66
2022/01/15 02:40:55;;;;;;;193.90;170.02;;;;;;;14.54;30.85;94729.38;4995196;28;20516;-66
2022/01/15 02:43:29;;;;;;;195.27;169.90;;;;;;;14.52;30.82;94722.88;5008982;28;20052;-66
2022/01/15 02:45:57;;;;;;;195.98;173.75;;;;;;;14.52;30.66;94720.94;4994189;28;20064;-66
2022/01/15 02:48:26;;;;;;;194.38;170.75;;;;;;;14.50;30.88;94718.69;5014949;28;20052;-66
2022/01/15 02:50:52;;;;;;;195.18;171.25;;;;;;;14.52;30.54;94717.50;5008666;28;20060;-66
2022/01/15 02:53:19;;;;;;;199.73;170.50;;;;;;;14.53;30.80;94719.78;5008819;28;20052;-66
2022/01/15 02:55:49;;;;;;;197.63;175.13;;;;;;;14.53;30.80;94713.63;5006039;28;20105;-66
2022/01/15 02:58:17;;;;;;;198.00;173.27;;;;;;;14.53;30.78;94705.56;5008704;28;20554;-66
2022/01/15 03:00:43;;;;;;;196.38;172.18;;;;;;;14.53;30.64;94714.41;5007878;28;20041;-66
2022/01/15 03:03:09;;;;;;;193.85;154.60;;;;;;;14.53;30.84;94700.19;5009314;28;20482;-66
2022/01/15 03:05:34;;;;;;;199.77;162.02;;;;;;;14.54;30.84;94701.69;5010163;28;20053;-66
2022/01/15 03:08:00;;;;;;;195.95;158.23;;;;;;;14.53;30.77;94703.63;5007712;28;20087;-66
2022/01/15 03:10:26;;;;;;;189.52;152.98;;;;;;;14.55;30.72;94695.16;4998054;28;20057;-66
2022/01/15 03:12:54;;;;;;;200.38;170.30;;;;;;;14.55;30.77;94695.16;5006093;28;20057;-67
2022/01/15 03:15:20;;;;;;;197.68;173.65;;;;;;;14.55;30.71;94697.84;5009296;28;20073;-67
2022/01/15 03:17:47;;;;;;;205.95;179.18;;;;;;;14.55;30.91;94692.44;4998778;28;20049;-66
2022/01/15 03:20:14;;;;;;;198.35;173.90;;;;;;;14.54;30.72;94689.00;5012144;28;20091;-66
2022/01/15 03:22:40;;;;;;;192.05;154.85;;;;;;;14.55;30.78;94681.69;4999864;28;20128;-66
2022/01/15 03:25:06;;;;;;;192.05;154.75;;;;;;;14.56;30.67;94675.88;5007654;28;20173;-65
2022/01/15 03:27:32;;;;;;;192.73;155.45;;;;;;;14.56;30.63;94673.19;5009864;28;20042;-66
2022/01/15 03:29:57;;;;;;;190.98;153.45;;;;;;;14.57;30.63;94676.66;5009633;28;20477;-65
2022/01/15 03:32:23;;;;;;;198.48;160.52;;;;;;;14.57;30.89;94672.03;5010715;28;20045;-66
2022/01/15 03:34:49;;;;;;;194.68;158.10;;;;;;;14.56;30.84;94672.44;5008406;28;20865;-66
2022/01/15 03:37:16;;;;;;;198.98;160.13;;;;;;;14.57;30.70;94668.56;5008901;28;20042;-66
2022/01/15 03:39:42;;;;;;;189.85;153.07;;;;;;;14.55;30.98;94663.59;5013475;28;20497;-67
2022/01/15 03:42:12;;;;;;;191.68;154.18;;;;;;;14.56;30.93;94667.06;5011405;28;20045;-67
2022/01/15 03:44:47;;;;;;;192.18;152.77;;;;;;;14.56;30.80;94664.38;4989236;28;20050;-66
2022/01/15 03:47:13;;;;;;;193.02;154.18;;;;;;;14.57;30.84;94671.25;5007041;28;20041;-66
2022/01/15 03:49:40;;;;;;;191.07;154.65;;;;;;;14.56;30.78;94661.69;5011392;28;20572;-66
2022/01/15 03:52:07;;;;;;;188.75;151.93;;;;;;;14.57;30.87;94657.81;5008080;28;20057;-66
2022/01/15 03:54:34;;;;;;;199.02;158.52;;;;;;;14.55;30.92;94650.16;5009468;28;20041;-66
2022/01/15 03:57:00;;;;;;;200.02;177.93;;;;;;;14.56;30.78;94658.97;5003151;28;20363;-66
2022/01/15 03:59:26;;;;;;;199.15;171.38;;;;;;;14.56;30.93;94664.38;5005980;28;20060;-65
2022/01/15 04:01:52;;;;;;;199.55;174.45;;;;;;;14.55;30.97;94666.28;5005785;28;20033;-66
2022/01/15 04:04:18;;;;;;;193.95;170.73;;;;;;;14.54;30.99;94656.69;4987641;28;20041;-66
2022/01/15 04:06:44;;;;;;;197.38;158.50;;;;;;;14.55;30.97;94660.16;5006836;28;20045;-66
2022/01/15 04:09:11;;;;;;;193.85;155.48;;;;;;;14.55;30.78;94660.16;5009004;28;20129;-66
2022/01/15 04:11:37;;;;;;;197.77;157.63;;;;;;;14.53;30.99;94640.97;5009622;28;20128;-66
2022/01/15 04:14:03;;;;;;;191.93;154.43;;;;;;;14.54;30.87;94643.25;5008470;28;20117;-66
2022/01/15 04:16:30;;;;;;;192.85;155.65;;;;;;;14.54;30.94;94654.00;5007584;28;20052;-66
2022/01/15 04:18:56;;;;;;;194.73;155.98;;;;;;;14.54;30.84;94659.41;5009110;28;20041;-66
2022/01/15 04:21:22;;;;;;;198.90;160.55;;;;;;;14.53;30.83;94655.19;5008977;28;20057;-66
2022/01/15 04:23:47;;;;;;;191.60;153.38;;;;;;;14.54;30.81;94656.69;5007348;28;22040;-66
2022/01/15 04:26:13;;;;;;;190.48;153.43;;;;;;;14.55;30.79;94660.16;5006914;28;20045;-67
2022/01/15 04:28:39;;;;;;;188.32;149.82;;;;;;;14.52;30.91;94660.97;5007643;28;20075;-66
2022/01/15 04:31:06;;;;;;;191.40;154.00;;;;;;;14.53;30.91;94659.81;5007487;28;20050;-65
2022/01/15 04:33:36;;;;;;;191.73;155.27;;;;;;;14.50;30.61;94656.78;5009340;28;20052;-66
2022/01/15 04:36:04;;;;;;;192.98;155.40;;;;;;;14.53;30.80;94660.56;5006141;28;20042;-66
2022/01/15 04:38:33;;;;;;;190.43;153.05;;;;;;;14.52;30.60;94660.97;5007816;28;20041;-66
2022/01/15 04:40:58;;;;;;;192.48;153.35;;;;;;;14.52;30.81;94658.28;5010443;28;20558;-66
2022/01/15 04:43:24;;;;;;;190.18;152.93;;;;;;;14.50;30.63;94661.41;5008923;28;20055;-67
2022/01/15 04:45:50;;;;;;;190.63;153.23;;;;;;;14.49;30.85;94657.94;5006767;28;20053;-66
2022/01/15 04:48:16;;;;;;;194.75;157.68;;;;;;;14.50;30.80;94642.56;5004962;28;20049;-66
2022/01/15 04:50:41;;;;;;;192.80;154.95;;;;;;;14.50;30.58;94650.63;4987964;28;20045;-66
2022/01/15 04:53:09;;;;;;;196.90;157.68;;;;;;;14.50;30.72;94658.72;5007283;28;20037;-66
2022/01/15 04:55:35;;;;;;;215.32;170.85;;;;;;;14.51;30.79;94654.84;5002011;28;20152;-65
2022/01/15 04:58:01;;;;;;;188.68;152.70;;;;;;;14.50;30.61;94656.78;5007846;28;20084;-66
2022/01/15 05:00:27;;;;;;;190.75;152.20;;;;;;;14.52;30.62;94652.91;5007443;28;20045;-66
2022/01/15 05:02:52;;;;;;;190.70;152.05;;;;;;;14.50;30.67;94648.69;5009888;28;20038;-66
2022/01/15 05:05:18;;;;;;;200.05;160.23;;;;;;;14.48;30.49;94640.28;5004865;28;20108;-65
2022/01/15 05:07:44;;;;;;;201.35;161.93;;;;;;;14.50;30.69;94643.31;5006355;28;20447;-66
2022/01/15 05:10:14;;;;;;;193.38;154.32;;;;;;;14.53;30.70;94652.50;5008724;28;20054;-66
2022/01/15 05:12:44;;;;;;;190.07;151.18;;;;;;;14.52;30.64;94650.97;5008644;28;20077;-65
2022/01/15 05:15:12;;;;;;;193.65;153.98;;;;;;;14.52;30.50;94650.97;5005972;28;20495;-66
2022/01/15 05:17:38;;;;;;;194.23;154.25;;;;;;;14.55;30.58;94658.22;4993304;28;20057;-67
2022/01/15 05:20:06;;;;;;;191.73;154.43;;;;;;;14.56;30.44;94643.59;5006912;28;20386;-66
2022/01/15 05:22:33;;;;;;;189.73;151.52;;;;;;;14.57;30.51;94644.34;5008342;28;20049;-66
2022/01/15 05:24:58;;;;;;;189.40;152.18;;;;;;;14.58;30.63;94643.19;5008959;28;20046;-66
2022/01/15 05:27:24;;;;;;;191.80;154.10;;;;;;;14.58;30.40;94632.41;5009389;28;20421;-67
2022/01/15 05:29:49;;;;;;;190.70;151.80;;;;;;;14.58;30.58;94643.19;5006707;28;20046;-66
2022/01/15 05:32:18;;;;;;;190.93;152.18;;;;;;;14.59;30.33;94636.63;5010868;28;20046;-65
2022/01/15 05:34:44;;;;;;;195.60;156.93;;;;;;;14.59;30.42;94633.94;5005092;28;20046;-66
2022/01/15 05:37:10;;;;;;;202.13;160.55;;;;;;;14.59;30.38;94640.06;5002233;28;20068;-66
2022/01/15 05:39:36;;;;;;;194.07;156.63;;;;;;;14.60;30.43;94636.19;5002864;28;20064;-66
2022/01/15 05:42:01;;;;;;;192.02;153.15;;;;;;;14.59;30.35;94631.22;5009689;28;20481;-66
2022/01/15 05:44:27;;;;;;;190.98;153.15;;;;;;;14.60;30.43;94630.06;5004031;28;20050;-66
2022/01/15 05:46:53;;;;;;;209.25;169.70;;;;;;;14.63;30.42;94626.53;5004490;28;20190;-65
2022/01/15 05:49:18;;;;;;;197.27;158.52;;;;;;;14.63;30.41;94630.00;5001053;28;20431;-67
2022/01/15 05:51:44;;;;;;;185.68;149.00;;;;;;;14.64;30.32;94631.50;5003525;28;21028;-67
2022/01/15 05:54:11;;;;;;;194.23;156.85;;;;;;;14.64;30.55;94625.38;5007840;28;20061;-67
2022/01/15 05:56:40;;;;;;;200.35;161.20;;;;;;;14.66;30.47;94637.22;4995691;28;20129;-66
2022/01/15 05:59:07;;;;;;;196.27;157.10;;;;;;;14.65;30.25;94632.25;4993526;28;20045;-66
2022/01/15 06:01:33;;;;;;;192.75;154.40;;;;;;;14.67;30.46;94627.22;5003928;28;20397;-67
2022/01/15 06:03:59;;;;;;;191.27;155.25;;;;;;;14.66;30.39;94631.84;5006071;28;20056;-66
2022/01/15 06:06:24;;;;;;;196.73;160.02;;;;;;;14.66;30.39;94626.47;5005685;28;20060;-66
2022/01/15 06:08:50;;;;;;;195.40;157.38;;;;;;;14.68;30.32;94636.81;5010996;28;20148;-65
2022/01/15 06:11:18;;;;;;;192.88;155.50;;;;;;;14.68;30.29;94634.13;5006023;28;20135;-66
2022/01/15 06:13:48;;;;;;;197.45;156.93;;;;;;;14.68;30.38;94645.66;5008542;28;20278;-66
2022/01/15 06:16:14;;;;;;;;;;;;;;;14.69;30.32;94641.03;5007177;28;20395;-66
2022/01/15 06:18:39;;;;;;;196.05;154.98;;;;;;;14.69;30.45;94641.03;5010166;28;19929;-67
2022/01/15 06:21:05;;;;;;;192.82;153.45;;;;;;;14.70;30.16;94643.31;5013177;28;20042;-65
2022/01/15 06:23:31;;;;;;;209.88;167.20;;;;;;;14.69;30.02;94641.03;5009366;28;20390;-66
2022/01/15 06:25:56;;;;;;;196.02;156.55;;;;;;;14.70;30.03;94643.31;5008161;28;20077;-64
2022/01/15 06:28:22;;;;;;;205.10;164.65;;;;;;;14.71;30.04;94649.44;5008245;28;20045;-66
2022/01/15 06:30:47;;;;;;;191.23;154.73;;;;;;;14.70;30.25;94648.69;5010695;28;20042;-66
2022/01/15 06:33:13;;;;;;;191.32;154.82;;;;;;;14.70;30.05;94646.00;5009227;28;20046;-64
2022/01/15 06:35:39;;;;;;;197.68;160.63;;;;;;;14.71;29.98;94646.75;5007356;28;20982;-65
2022/01/15 06:38:05;;;;;;;192.80;155.35;;;;;;;14.72;29.94;94649.03;5008440;28;20041;-65
2022/01/15 06:40:31;;;;;;;197.43;159.80;;;;;;;14.73;30.07;94647.09;5011406;28;20104;-65
2022/01/15 06:42:59;;;;;;;189.90;154.02;;;;;;;14.72;29.93;94649.03;5008468;28;20045;-66
2022/01/15 06:45:25;;;;;;;211.27;170.07;;;;;;;14.72;30.04;94649.03;5009674;28;20777;-66
2022/01/15 06:47:51;;;;;;;193.70;156.45;;;;;;;14.72;29.93;94649.03;5013319;28;20445;-66
2022/01/15 06:50:16;;;;;;;195.07;157.60;;;;;;;14.73;30.15;94649.78;5007688;28;20073;-66
2022/01/15 06:52:42;;;;;;;196.93;158.90;;;;;;;14.71;29.93;94652.91;5006449;28;20052;-66
2022/01/15 06:55:09;;;;;;;196.93;158.13;;;;;;;14.73;29.95;94657.88;5009391;28;20052;-65
2022/01/15 06:57:34;;;;;;;199.20;161.90;;;;;;;14.72;30.10;94651.72;5012239;28;20291;-66
2022/01/15 07:00:01;;;;;;;196.65;156.13;;;;;;;14.73;29.96;94655.19;5006965;28;20057;-66
2022/01/15 07:02:27;;;;;;;200.07;161.43;;;;;;;14.72;29.96;94657.09;5009157;28;21167;-66
2022/01/15 07:04:52;;;;;;;192.65;155.95;;;;;;;14.71;29.78;94658.28;4996893;28;20411;-66
2022/01/15 07:07:18;;;;;;;193.75;156.45;;;;;;;14.72;29.76;94662.50;5011573;28;20112;-66
2022/01/15 07:09:43;;;;;;;193.52;156.93;;;;;;;14.71;29.74;94663.66;5007186;28;20474;-65
2022/01/15 07:12:10;;;;;;;191.45;154.25;;;;;;;14.71;30.05;94660.97;5008452;28;20478;-66
2022/01/15 07:14:35;;;;;;;191.70;154.13;;;;;;;14.71;29.74;94660.22;5005476;28;20119;-66
2022/01/15 07:17:01;;;;;;;188.88;152.93;;;;;;;14.72;29.85;94667.88;5006090;28;20042;-66
2022/01/15 07:19:27;;;;;;;204.00;166.15;;;;;;;14.71;29.72;94663.66;5007391;28;20113;-65
2022/01/15 07:21:52;;;;;;;203.82;164.07;;;;;;;14.72;29.71;94664.44;5010491;28;20405;-66
2022/01/15 07:24:18;;;;;;;194.55;156.50;;;;;;;14.72;29.56;94664.44;5007015;28;20061;-66
2022/01/15 07:26:44;;;;;;;197.65;159.10;;;;;;;14.72;29.91;94661.72;5008056;28;20049;-65
2022/01/15 07:29:14;;;;;;;192.45;155.75;;;;;;;14.71;29.77;94665.59;5005728;28;20049;-66
2022/01/15 07:31:42;;;;;;;191.07;154.38;;;;;;;14.71;29.97;94679.81;5005203;28;20069;-66
2022/01/15 07:34:08;;;;;;;190.60;153.07;;;;;;;14.71;29.77;94673.69;5007418;28;20068;-68
2022/01/15 07:36:34;;;;;;;194.63;157.45;;;;;;;14.70;29.74;94667.53;5006167;28;20095;-65
2022/01/15 07:39:00;;;;;;;190.00;152.48;;;;;;;14.69;29.85;94666.00;5012193;28;20097;-69
2022/01/15 07:41:26;;;;;;;202.70;163.90;;;;;;;14.70;30.01;94664.09;5005697;28;20041;-64
2022/01/15 07:43:51;;;;;;;209.27;169.77;;;;;;;14.70;29.78;94672.16;5004697;28;20056;-66
2022/01/15 07:46:17;;;;;;;192.93;155.95;;;;;;;14.68;29.75;94667.19;5006007;28;20400;-65
2022/01/15 07:48:43;;;;;;;194.40;157.68;;;;;;;14.70;29.77;94667.53;5006863;28;20103;-68
2022/01/15 07:51:08;;;;;;;205.23;166.32;;;;;;;14.71;29.38;94663.66;5004712;28;20368;-62
2022/01/15 07:53:34;;;;;;;211.10;169.13;;;;;;;14.72;29.77;94662.50;5005410;28;20080;-65
2022/01/15 07:55:59;;;;;;;192.55;155.07;;;;;;;14.72;29.79;94661.72;5006854;28;20054;-66
2022/01/15 07:58:25;;;;;;;194.93;157.68;;;;;;;14.73;29.79;94663.25;5006956;28;20421;-64
2022/01/15 08:00:50;;;;;;;191.48;154.50;;;;;;;14.72;29.72;94651.72;5004803;28;21152;-64
2022/01/15 08:03:16;;;;;;;194.82;156.88;;;;;;;14.70;29.59;94659.47;5007619;28;20136;-65
2022/01/15 08:05:41;;;;;;;201.73;161.18;;;;;;;14.72;29.85;94653.66;5005703;28;20064;-65
2022/01/15 08:08:07;;;;;;;204.85;165.20;;;;;;;14.72;29.73;94645.59;5005238;28;20072;-65
2022/01/15 08:10:33;;;;;;;200.50;161.07;;;;;;;14.71;29.93;94642.13;5004342;28;20049;-65
2022/01/15 08:12:59;;;;;;;207.50;167.95;;;;;;;14.71;29.72;94636.75;5001983;28;20533;-66
2022/01/15 08:15:25;;;;;;;222.52;175.93;;;;;;;14.71;29.76;94647.50;5002591;28;20060;-66
2022/01/15 08:17:52;;;;;;;210.73;168.65;;;;;;;14.71;29.81;94641.38;4993042;28;20093;-65
2022/01/15 08:20:18;;;;;;;225.10;181.27;;;;;;;14.72;29.80;94640.19;4975831;28;20686;-65
2022/01/15 08:22:45;;;;;;;223.68;180.38;;;;;;;14.71;29.87;94634.06;4993743;28;20057;-66
2022/01/15 08:25:18;;;;;;;228.95;182.27;;;;;;;14.72;29.86;94640.19;4995510;28;20057;-65
2022/01/15 08:27:45;;;;;;;212.73;170.27;;;;;;;14.74;29.82;94640.53;4992089;28;20111;-66
2022/01/15 08:30:11;;;;;;;219.20;177.05;;;;;;;14.73;29.88;94633.63;4993266;28;20113;-66
2022/01/15 08:32:37;;;;;;;234.20;189.48;;;;;;;14.73;29.98;94629.00;4998259;28;20046;-66
2022/01/15 08:35:03;;;;;;;227.20;181.48;;;;;;;14.75;29.89;94633.97;4996689;28;20690;-65
2022/01/15 08:37:29;;;;;;;218.65;174.98;;;;;;;14.74;29.95;94627.84;4993527;28;20869;-65
2022/01/15 08:39:55;;;;;;;225.52;181.63;;;;;;;14.74;29.96;94619.00;4994583;28;20062;-65
2022/01/15 08:42:20;;;;;;;215.68;174.45;;;;;;;14.73;30.10;94615.53;4999402;28;20668;-66
2022/01/15 08:44:46;;;;;;;216.05;173.80;;;;;;;14.74;30.06;94613.63;4998959;28;20568;-65
2022/01/15 08:47:12;;;;;;;216.30;171.85;;;;;;;14.75;30.02;94613.19;4999909;28;20056;-65
2022/01/15 08:49:38;;;;;;;213.88;170.93;;;;;;;14.74;30.18;94609.00;4998028;28;20057;-65
2022/01/15 08:52:04;;;;;;;209.45;169.52;;;;;;;14.74;30.11;94609.00;4999553;28;20155;-64
2022/01/15 08:54:30;;;;;;;220.98;179.05;;;;;;;14.74;30.13;94602.84;4997689;28;20110;-66
2022/01/15 08:56:56;;;;;;;209.93;169.93;;;;;;;14.74;30.08;94600.91;4999735;28;20196;-64
2022/01/15 08:59:23;;;;;;;216.80;173.88;;;;;;;14.75;30.25;94599.72;4993978;28;20637;-66
2022/01/15 09:01:49;;;;;;;216.80;174.82;;;;;;;14.76;30.23;94597.81;4998988;28;20053;-65
2022/01/15 09:04:15;;;;;;;215.68;173.13;;;;;;;14.75;30.28;94599.72;4997709;28;20049;-64
2022/01/15 09:06:40;;;;;;;215.60;175.38;;;;;;;14.75;30.30;94605.13;4996505;28;20060;-65
2022/01/15 09:09:06;;;;;;;213.88;172.52;;;;;;;14.75;30.26;94596.28;5000405;28;20540;-65
2022/01/15 09:11:32;;;;;;;211.35;170.43;;;;;;;14.74;30.17;94598.22;4999602;28;20057;-66
2022/01/15 09:13:57;;;;;;;198.75;159.40;;;;;;;14.75;30.05;94593.59;4998537;28;20735;-66
2022/01/15 09:16:23;;;;;;;213.80;172.77;;;;;;;14.75;30.21;94594.34;4999747;28;20054;-65
2022/01/15 09:18:49;;;;;;;213.38;171.75;;;;;;;14.74;30.31;94592.84;4996058;28;20733;-66
2022/01/15 09:21:16;;;;;;;216.68;174.85;;;;;;;14.73;30.44;94588.63;5000868;28;20509;-65
2022/01/15 09:23:42;;;;;;;219.60;176.65;;;;;;;14.73;30.29;94575.16;4994388;28;20496;-66
2022/01/15 09:26:18;;;;;;;216.35;175.10;;;;;;;14.73;30.32;94580.53;4998856;28;20067;-66
2022/01/15 09:31:28;;;;;;;211.23;170.45;;;;;;;14.71;30.29;94576.75;4991561;28;20042;-65
2022/01/15 09:33:54;;;;;;;201.75;161.23;;;;;;;14.73;30.36;94574.41;5000836;28;20622;-65
2022/01/15 09:36:19;;;;;;;202.38;162.40;;;;;;;14.73;30.30;94566.34;4996389;28;20572;-65
2022/01/15 09:38:45;;;;;;;203.52;164.63;;;;;;;14.73;30.52;94572.47;5002580;28;20121;-66
2022/01/15 09:41:11;;;;;;;215.23;172.30;;;;;;;14.73;30.53;94569.78;4998499;28;20200;-65
2022/01/15 09:43:39;;;;;;;215.88;171.73;;;;;;;14.73;30.46;94575.16;4998413;28;21380;-65
2022/01/15 09:46:05;;;;;;;218.35;175.80;;;;;;;14.74;30.42;94565.91;4994250;28;20118;-66
2022/01/15 09:48:32;;;;;;;230.38;186.07;;;;;;;14.75;30.45;94567.44;4994237;28;20049;-65
2022/01/15 09:50:58;;;;;;;217.35;174.32;;;;;;;14.74;30.49;94559.78;4994586;28;20085;-65
2022/01/15 09:53:23;;;;;;;206.27;165.98;;;;;;;14.74;30.60;94555.16;4997858;28;20485;-66
2022/01/15 09:55:49;;;;;;;215.23;173.52;;;;;;;14.73;30.51;94559.00;4995612;28;20172;-65
2022/01/15 09:58:16;;;;;;;223.88;178.90;;;;;;;14.74;30.58;94557.06;4977754;28;20144;-65
2022/01/15 10:00:42;;;;;;;206.27;167.70;;;;;;;14.71;30.74;94552.53;4977022;28;20047;-66
2022/01/15 10:03:08;;;;;;;211.38;170.50;;;;;;;14.73;30.49;94545.56;5003034;28;20061;-65
2022/01/15 10:05:33;;;;;;;226.88;186.05;;;;;;;14.74;30.57;94546.31;4997653;28;20110;-65
2022/01/15 10:08:09;;;;;;;217.32;176.43;;;;;;;14.74;30.65;94547.06;4992478;28;20480;-64
2022/01/15 10:10:36;;;;;;;219.18;175.93;;;;;;;14.73;30.71;94547.47;4995973;28;20071;-65
2022/01/15 10:13:19;;;;;;;210.18;169.40;;;;;;;14.74;30.66;94540.94;4995999;28;20055;-65
2022/01/15 10:15:47;;;;;;;214.65;172.43;;;;;;;14.73;30.72;94545.56;4995914;28;20053;-64
2022/01/15 10:18:25;;;;;;;202.85;163.15;;;;;;;14.72;30.87;94541.34;4997592;28;20057;-64
2022/01/15 10:20:53;;;;;;;199.73;159.85;;;;;;;14.73;30.63;94532.09;4993847;28;21311;-66
2022/01/15 10:23:21;;;;;;;196.88;158.07;;;;;;;14.72;30.86;94535.97;4982017;28;20100;-65
2022/01/15 10:26:13;;;;;;;216.13;173.85;;;;;;;14.72;30.85;94535.19;4997101;28;20053;-65
2022/01/15 10:28:54;;;;;;;219.38;175.18;;;;;;;14.72;30.70;94530.56;4996036;28;20060;-65
2022/01/15 10:31:23;;;;;;;217.05;174.35;;;;;;;14.73;30.80;94524.00;4994146;28;20580;-65
2022/01/15 10:33:49;;;;;;;217.32;174.77;;;;;;;14.74;30.90;94528.22;4994291;28;20057;-64
2022/01/15 10:36:23;;;;;;;217.63;175.93;;;;;;;14.75;30.92;94526.28;4998985;28;20086;-64
2022/01/15 10:38:49;;;;;;;220.48;177.43;;;;;;;14.74;31.03;94524.78;4994112;28;20138;-65
2022/01/15 10:41:35;;;;;;;213.43;171.30;;;;;;;14.74;31.09;94524.78;4997582;28;20087;-65
2022/01/15 10:44:21;;;;;;;214.38;171.13;;;;;;;14.74;31.00;94511.31;4992729;28;20890;-65
2022/01/15 10:46:47;;;;;;;216.75;173.63;;;;;;;14.76;30.95;94514.34;4993156;28;20457;-66
2022/01/15 10:49:25;;;;;;;214.73;174.07;;;;;;;14.77;31.04;94508.53;4994412;28;20061;-65
2022/01/15 10:52:06;;;;;;;208.73;169.60;;;;;;;14.76;30.96;94498.19;4997594;28;20056;-65
2022/01/15 10:54:34;;;;;;;213.40;168.98;;;;;;;14.77;30.82;94503.16;4996524;28;21309;-65
2022/01/15 10:57:10;;;;;;;212.23;171.13;;;;;;;14.76;31.12;94498.19;4997507;28;20057;-65
2022/01/15 10:59:36;;;;;;;205.55;167.20;;;;;;;14.74;31.16;94495.16;4994686;28;20096;-65
2022/01/15 11:02:21;;;;;;;216.30;175.50;;;;;;;14.73;31.23;94494.41;4992022;28;21297;-65
2022/01/15 11:04:47;;;;;;;210.57;170.60;;;;;;;14.71;31.13;94485.97;4976353;28;20285;-64
2022/01/15 11:07:15;;;;;;;214.90;173.68;;;;;;;14.70;31.30;94484.47;4995558;28;21084;-64
2022/01/15 11:09:45;;;;;;;214.43;172.15;;;;;;;14.68;31.15;94480.69;5002230;28;20077;-65
2022/01/15 11:12:11;;;;;;;218.05;176.23;;;;;;;14.70;31.40;94481.03;4996460;28;20049;-64
2022/01/15 11:14:38;;;;;;;224.40;180.43;;;;;;;14.72;31.44;94482.13;4994652;28;20068;-65
2022/01/15 11:17:05;;;;;;;214.80;172.90;;;;;;;14.76;31.35;94479.34;4993799;28;20042;-65
2022/01/15 11:19:32;;;;;;;223.60;181.73;;;;;;;14.76;31.24;94479.34;5000606;28;20097;-65
2022/01/15 11:21:59;;;;;;;213.73;173.43;;;;;;;14.74;31.15;94469.00;4997348;28;20149;-65
2022/01/15 11:24:25;;;;;;;210.02;169.40;;;;;;;14.74;31.30;94469.00;4999416;28;20063;-65
2022/01/15 11:26:58;;;;;;;216.75;175.27;;;;;;;14.75;31.26;94467.06;4997339;28;20053;-67
2022/01/15 11:29:26;;;;;;;219.85;177.40;;;;;;;14.76;31.31;94455.88;4978049;28;20384;-65
2022/01/15 11:31:55;;;;;;;221.45;179.65;;;;;;;14.76;31.08;94458.56;4946273;28;20563;-66
2022/01/15 11:34:21;;;;;;;213.05;172.68;;;;;;;14.77;31.30;94457.38;4975889;28;21235;-66